createdAt,value
2017-04-20T00:00:45.828Z,7.21
2017-04-20T00:01:56.151Z,7.15
2017-04-20T00:03:06.467Z,7.16
2017-04-20T00:04:16.799Z,7.16
2017-04-20T00:05:27.123Z,7.12
2017-04-20T00:06:37.506Z,7.19
2017-04-20T00:07:48.180Z,7.16
2017-04-20T00:08:58.521Z,7.16
2017-04-20T00:10:08.852Z,7.11
2017-04-20T00:11:19.213Z,7.12
2017-04-20T00:12:29.239Z,7.09
2017-04-20T00:13:39.303Z,7.13
2017-04-20T00:14:49.669Z,7.09
2017-04-20T00:16:00.015Z,7.09
2017-04-20T00:17:10.326Z,7.11
2017-04-20T00:18:20.342Z,7.11
2017-04-20T00:19:30.384Z,7.05
2017-04-20T00:20:40.394Z,7.01
2017-04-20T00:21:50.708Z,7.04
2017-04-20T00:23:01.271Z,6.97
2017-04-20T00:24:11.013Z,6.95
2017-04-20T00:25:21.339Z,7.05
2017-04-20T00:26:31.696Z,7
2017-04-20T00:27:42.023Z,7
2017-04-20T00:28:52.364Z,7.03
2017-04-20T00:30:02.716Z,7.08
2017-04-20T00:31:13.032Z,7.03
2017-04-20T00:32:23.365Z,7
2017-04-20T00:33:33.691Z,7.08
2017-04-20T00:34:44.013Z,7.09
2017-04-20T00:35:54.339Z,7.05
2017-04-20T00:37:04.666Z,7.05
2017-04-20T00:38:14.994Z,7.05
2017-04-20T00:39:25.360Z,7.05
2017-04-20T00:40:35.696Z,7.04
2017-04-20T00:41:46.018Z,7.13
2017-04-20T00:42:56.338Z,7.11
2017-04-20T00:44:06.369Z,7.11
2017-04-20T00:45:16.709Z,7.09
2017-04-20T00:46:26.720Z,7.15
2017-04-20T00:47:36.786Z,7.13
2017-04-20T00:48:46.493Z,7.15
2017-04-20T00:49:56.509Z,7.09
2017-04-20T00:51:06.867Z,7.13
2017-04-20T00:52:17.189Z,7.16
2017-04-20T00:53:27.514Z,7.03
2017-04-20T00:54:37.843Z,7.03
2017-04-20T00:55:47.882Z,7.04
2017-04-20T00:56:57.891Z,7.04
2017-04-20T00:58:07.592Z,7
2017-04-20T00:59:17.928Z,7.01
2017-04-20T01:00:28.254Z,7.11
2017-04-20T01:01:38.580Z,7
2017-04-20T01:02:48.604Z,7.01
2017-04-20T01:03:58.937Z,7.04
2017-04-20T01:05:09.562Z,7.05
2017-04-20T01:06:20.034Z,7.03
2017-04-20T01:07:30.375Z,7.04
2017-04-20T01:08:40.073Z,6.98
2017-04-20T01:09:50.078Z,6.94
2017-04-20T01:11:00.405Z,7.01
2017-04-20T01:12:10.723Z,6.95
2017-04-20T01:13:21.049Z,6.9
2017-04-20T01:14:31.361Z,7
2017-04-20T01:15:41.673Z,7.05
2017-04-20T01:16:51.688Z,6.98
2017-04-20T01:18:01.707Z,6.97
2017-04-20T01:19:12.051Z,7
2017-04-20T01:20:22.069Z,6.97
2017-04-20T01:21:32.076Z,6.94
2017-04-20T01:22:42.408Z,7.03
2017-04-20T01:23:52.731Z,6.98
2017-04-20T01:25:03.055Z,6.91
2017-04-20T01:26:13.382Z,6.91
2017-04-20T01:27:23.714Z,6.86
2017-04-20T01:28:34.070Z,6.86
2017-04-20T01:29:44.382Z,6.9
2017-04-20T01:30:54.397Z,6.78
2017-04-20T01:32:04.750Z,6.8
2017-04-20T01:33:40.131Z,6.78
2017-04-20T01:34:50.443Z,6.79
2017-04-20T01:36:00.788Z,6.8
2017-04-20T01:37:11.120Z,6.83
2017-04-20T01:38:21.137Z,6.72
2017-04-20T01:39:31.468Z,6.78
2017-04-20T01:40:41.790Z,6.8
2017-04-20T01:41:51.800Z,6.78
2017-04-20T01:43:02.132Z,6.72
2017-04-20T01:44:12.466Z,6.8
2017-04-20T01:45:22.801Z,6.83
2017-04-20T01:46:33.134Z,6.79
2017-04-20T01:47:43.475Z,6.79
2017-04-20T01:48:53.816Z,6.8
2017-04-20T01:50:04.161Z,6.8
2017-04-20T01:51:14.180Z,6.76
2017-04-20T01:52:24.796Z,6.79
2017-04-20T01:53:34.862Z,6.8
2017-04-20T01:54:45.184Z,6.78
2017-04-20T01:55:55.529Z,6.76
2017-04-20T01:57:05.914Z,6.68
2017-04-20T01:58:16.256Z,6.76
2017-04-20T01:59:26.596Z,6.68
2017-04-20T02:00:36.924Z,6.76
2017-04-20T02:01:47.240Z,6.75
2017-04-20T02:02:57.577Z,6.64
2017-04-20T02:04:07.913Z,6.7
2017-04-20T02:05:17.621Z,6.6
2017-04-20T02:06:27.645Z,6.65
2017-04-20T02:07:37.980Z,6.52
2017-04-20T02:08:48.314Z,6.62
2017-04-20T02:09:58.011Z,6.62
2017-04-20T02:11:08.053Z,6.61
2017-04-20T02:12:18.069Z,6.64
2017-04-20T02:13:28.400Z,6.65
2017-04-20T02:14:38.741Z,6.64
2017-04-20T02:15:49.081Z,6.58
2017-04-20T02:16:59.426Z,6.65
2017-04-20T02:18:09.764Z,6.52
2017-04-20T02:19:20.099Z,6.54
2017-04-20T02:20:30.442Z,6.64
2017-04-20T02:21:40.845Z,6.67
2017-04-20T02:22:51.312Z,6.65
2017-04-20T02:24:01.336Z,6.68
2017-04-20T02:25:11.694Z,6.6
2017-04-20T02:26:21.708Z,6.61
2017-04-20T02:27:31.727Z,6.62
2017-04-20T02:28:41.771Z,6.68
2017-04-20T02:29:51.822Z,6.67
2017-04-20T02:31:02.189Z,6.72
2017-04-20T02:32:12.195Z,6.7
2017-04-20T02:33:22.531Z,6.7
2017-04-20T02:34:32.872Z,6.55
2017-04-20T02:35:43.191Z,6.52
2017-04-20T02:36:53.532Z,6.6
2017-04-20T02:38:03.553Z,6.52
2017-04-20T02:39:13.885Z,6.61
2017-04-20T02:40:24.268Z,6.57
2017-04-20T02:41:34.613Z,6.62
2017-04-20T02:42:44.932Z,6.57
2017-04-20T02:43:55.305Z,6.64
2017-04-20T02:45:05.628Z,6.61
2017-04-20T02:46:15.964Z,6.7
2017-04-20T02:47:25.990Z,6.65
2017-04-20T02:48:36.319Z,6.67
2017-04-20T02:49:46.379Z,6.7
2017-04-20T02:50:56.758Z,6.65
2017-04-20T02:52:07.074Z,6.67
2017-04-20T02:53:17.428Z,6.67
2017-04-20T02:54:27.754Z,6.62
2017-04-20T02:55:38.114Z,6.68
2017-04-20T02:56:48.675Z,6.62
2017-04-20T02:57:58.690Z,6.58
2017-04-20T02:59:09.046Z,6.62
2017-04-20T03:00:19.385Z,6.54
2017-04-20T03:01:29.720Z,6.51
2017-04-20T03:33:10.020Z,4.1
2017-04-20T03:34:20.351Z,4.08
2017-04-20T03:35:30.663Z,4.04
2017-04-20T03:36:41.019Z,4.08
2017-04-20T03:37:51.351Z,4.12
2017-04-20T03:39:01.697Z,4.3
2017-04-20T03:40:12.035Z,4.4
2017-04-20T03:41:22.063Z,4.54
2017-04-20T03:42:32.379Z,4.65
2017-04-20T03:43:42.388Z,4.9
2017-04-20T03:44:52.407Z,5.06
2017-04-20T03:46:02.744Z,5.21
2017-04-20T03:47:13.086Z,5.39
2017-04-20T03:48:23.413Z,5.45
2017-04-20T03:49:33.743Z,5.6
2017-04-20T03:50:43.741Z,5.67
2017-04-20T03:51:53.763Z,5.77
2017-04-20T03:53:03.794Z,5.81
2017-04-20T03:54:13.492Z,5.95
2017-04-20T03:55:23.827Z,6.02
2017-04-20T03:56:33.893Z,5.96
2017-04-20T03:57:43.941Z,6.03
2017-04-20T03:58:54.320Z,6.06
2017-04-20T04:00:04.659Z,6.2
2017-04-20T04:01:15.007Z,6.24
2017-04-20T04:02:25.331Z,6.28
2017-04-20T04:03:35.725Z,6.29
2017-04-20T04:04:46.057Z,6.33
2017-04-20T04:05:56.382Z,6.33
2017-04-20T04:07:06.429Z,6.29
2017-04-20T04:08:16.459Z,6.34
2017-04-20T04:09:26.493Z,6.33
2017-04-20T04:10:36.827Z,6.37
2017-04-20T04:11:46.853Z,6.39
2017-04-20T04:12:57.169Z,6.34
2017-04-20T04:14:07.220Z,6.39
2017-04-20T04:15:17.238Z,6.39
2017-04-20T04:16:27.278Z,6.49
2017-04-20T04:17:37.603Z,6.51
2017-04-20T04:18:47.624Z,6.43
2017-04-20T04:19:57.938Z,6.4
2017-04-20T04:21:07.956Z,6.47
2017-04-20T04:22:17.991Z,6.52
2017-04-20T04:23:28.006Z,6.44
2017-04-20T04:24:38.370Z,6.47
2017-04-20T04:25:48.717Z,6.39
2017-04-20T04:26:58.738Z,6.46
2017-04-20T04:28:09.066Z,6.51
2017-04-20T04:29:18.762Z,6.43
2017-04-20T04:30:28.464Z,6.44
2017-04-20T04:31:38.787Z,6.42
2017-04-20T04:32:48.809Z,6.49
2017-04-20T04:33:59.161Z,6.52
2017-04-20T04:35:09.192Z,6.55
2017-04-20T04:36:19.503Z,6.51
2017-04-20T04:37:29.965Z,6.54
2017-04-20T04:38:40.772Z,6.47
2017-04-20T04:39:51.211Z,6.47
2017-04-20T04:41:00.991Z,6.49
2017-04-20T04:42:11.314Z,6.51
2017-04-20T04:43:21.327Z,6.47
2017-04-20T04:44:31.675Z,6.55
2017-04-20T04:45:42.044Z,6.54
2017-04-20T04:46:52.373Z,6.51
2017-04-20T04:48:02.697Z,6.49
2017-04-20T04:49:12.406Z,6.44
2017-04-20T04:50:22.417Z,6.46
2017-04-20T04:51:32.736Z,6.51
2017-04-20T04:52:43.055Z,6.51
2017-04-20T04:53:53.393Z,6.57
2017-04-20T04:55:03.092Z,6.51
2017-04-20T04:56:13.431Z,6.54
2017-04-20T04:57:23.777Z,6.52
2017-04-20T04:58:34.130Z,6.57
2017-04-20T04:59:43.826Z,6.6
2017-04-20T05:00:54.210Z,6.57
2017-04-20T05:02:04.214Z,6.55
2017-04-20T05:03:14.548Z,6.64
2017-04-20T05:04:24.879Z,6.61
2017-04-20T05:05:35.212Z,6.67
2017-04-20T05:06:45.545Z,6.62
2017-04-20T05:07:56.122Z,6.61
2017-04-20T05:09:06.442Z,6.64
2017-04-20T05:10:16.787Z,6.73
2017-04-20T05:11:27.127Z,6.61
2017-04-20T05:12:37.145Z,6.67
2017-04-20T05:13:47.533Z,6.73
2017-04-20T05:14:57.866Z,6.68
2017-04-20T05:16:08.008Z,6.65
2017-04-20T05:17:18.352Z,6.68
2017-04-20T05:18:28.670Z,6.72
2017-04-20T05:19:38.986Z,6.75
2017-04-20T05:20:49.008Z,6.65
2017-04-20T05:21:59.330Z,6.76
2017-04-20T05:23:09.642Z,6.72
2017-04-20T05:24:19.696Z,6.73
2017-04-20T05:25:29.714Z,6.67
2017-04-20T05:26:40.037Z,6.7
2017-04-20T05:27:50.368Z,6.67
2017-04-20T05:29:00.717Z,6.8
2017-04-20T05:30:10.432Z,6.75
2017-04-20T05:31:20.754Z,6.79
2017-04-20T05:32:31.076Z,6.79
2017-04-20T05:33:41.413Z,6.8
2017-04-20T05:34:51.427Z,6.79
2017-04-20T05:36:01.772Z,6.75
2017-04-20T05:37:11.786Z,6.76
2017-04-20T05:38:21.800Z,6.78
2017-04-20T05:39:32.134Z,6.83
2017-04-20T05:40:42.456Z,6.78
2017-04-20T05:41:52.493Z,6.86
2017-04-20T05:43:02.816Z,6.8
2017-04-20T05:44:13.172Z,6.82
2017-04-20T05:45:23.182Z,6.95
2017-04-20T05:46:33.522Z,6.95
2017-04-20T05:47:43.847Z,6.98
2017-04-20T05:48:54.167Z,6.98
2017-04-20T05:50:04.435Z,7.01
2017-04-20T05:51:14.457Z,6.98
2017-04-20T05:52:24.841Z,7.01
2017-04-20T05:53:35.177Z,6.97
2017-04-20T05:54:45.184Z,7.01
2017-04-20T05:55:55.519Z,6.94
2017-04-20T05:57:05.856Z,7.01
2017-04-20T05:58:16.188Z,7
2017-04-20T05:59:26.527Z,7
2017-04-20T06:00:36.847Z,7.01
2017-04-20T06:01:47.189Z,7.04
2017-04-20T06:02:57.513Z,7.03
2017-04-20T06:04:07.836Z,7.08
2017-04-20T06:05:17.862Z,7.11
2017-04-20T06:06:28.225Z,7.15
2017-04-20T06:07:38.550Z,7.16
2017-04-20T06:08:48.873Z,7.18
2017-04-20T06:09:59.203Z,7.16
2017-04-20T06:11:09.537Z,7.19
2017-04-20T06:12:19.566Z,7.21
2017-04-20T06:13:29.889Z,7.22
2017-04-20T06:14:40.232Z,7.26
2017-04-20T06:15:50.233Z,7.29
2017-04-20T06:17:00.575Z,7.3
2017-04-20T06:18:10.592Z,7.39
2017-04-20T06:19:20.598Z,7.41
2017-04-20T06:20:30.925Z,7.47
2017-04-20T06:21:41.261Z,7.51
2017-04-20T06:22:51.276Z,7.52
2017-04-20T06:24:01.614Z,7.52
2017-04-20T06:25:11.962Z,7.59
2017-04-20T06:26:22.404Z,7.7
2017-04-20T06:27:32.758Z,7.67
2017-04-20T06:28:43.118Z,7.61
2017-04-20T06:29:53.500Z,7.58
2017-04-20T06:31:03.524Z,7.68
2017-04-20T06:32:14.032Z,7.71
2017-04-20T06:33:24.475Z,7.67
2017-04-20T06:34:34.805Z,7.73
2017-04-20T06:35:44.835Z,7.75
2017-04-20T06:36:54.866Z,7.74
2017-04-20T06:38:05.198Z,7.68
2017-04-20T06:39:15.198Z,7.75
2017-04-20T06:40:25.211Z,7.88
2017-04-20T06:41:35.543Z,7.89
2017-04-20T06:42:45.875Z,7.8
2017-04-20T06:43:56.207Z,7.78
2017-04-20T06:45:06.222Z,7.86
2017-04-20T06:46:16.574Z,7.78
2017-04-20T06:47:26.925Z,7.83
2017-04-20T06:48:37.256Z,7.85
2017-04-20T06:49:47.593Z,7.91
2017-04-20T06:50:57.948Z,7.88
2017-04-20T06:52:08.267Z,7.88
2017-04-20T06:53:18.604Z,7.92
2017-04-20T06:54:28.940Z,7.88
2017-04-20T06:55:39.253Z,7.98
2017-04-20T06:56:49.574Z,7.88
2017-04-20T06:57:59.950Z,7.93
2017-04-20T06:59:10.277Z,7.96
2017-04-20T07:00:20.639Z,8.01
2017-04-20T07:01:30.664Z,8.09
2017-04-20T07:02:41.003Z,8.07
2017-04-20T07:03:51.337Z,7.99
2017-04-20T07:05:01.657Z,7.99
2017-04-20T07:06:11.690Z,7.98
2017-04-20T07:07:22.019Z,8.04
2017-04-20T07:08:32.362Z,8.04
2017-04-20T07:09:42.589Z,8.01
2017-04-20T07:10:52.905Z,7.89
2017-04-20T07:12:03.255Z,7.95
2017-04-20T07:13:13.574Z,7.92
2017-04-20T07:14:23.897Z,8.06
2017-04-20T07:15:34.229Z,7.93
2017-04-20T07:16:44.553Z,7.98
2017-04-20T07:17:54.875Z,8.04
2017-04-20T07:19:04.882Z,8.06
2017-04-20T07:20:15.197Z,8.04
2017-04-20T07:21:24.917Z,8.01
2017-04-20T07:22:35.249Z,8.14
2017-04-20T07:23:45.571Z,8.17
2017-04-20T07:24:55.947Z,8.13
2017-04-20T07:26:06.289Z,8.16
2017-04-20T07:27:16.298Z,8.25
2017-04-20T07:28:26.653Z,8.31
2017-04-20T07:29:36.978Z,8.32
2017-04-20T07:30:47.345Z,8.19
2017-04-20T07:31:57.675Z,8.26
2017-04-20T07:33:07.761Z,8.24
2017-04-20T07:34:17.764Z,8.22
2017-04-20T07:35:27.776Z,8.35
2017-04-20T07:36:37.809Z,8.34
2017-04-20T07:37:47.823Z,8.39
2017-04-20T07:38:57.875Z,8.36
2017-04-20T07:40:07.577Z,8.28
2017-04-20T07:41:17.910Z,8.47
2017-04-20T07:42:27.629Z,8.39
2017-04-20T07:43:37.964Z,8.39
2017-04-20T07:44:48.328Z,8.44
2017-04-20T07:45:58.347Z,8.43
2017-04-20T07:47:08.665Z,8.4
2017-04-20T07:48:19.045Z,8.46
2017-04-20T07:49:29.466Z,8.52
2017-04-20T07:50:39.754Z,8.6
2017-04-20T07:51:50.258Z,8.58
2017-04-20T07:53:00.282Z,8.53
2017-04-20T07:54:10.608Z,8.62
2017-04-20T07:55:20.317Z,8.49
2017-04-20T07:56:30.327Z,8.53
2017-04-20T07:57:40.340Z,8.5
2017-04-20T07:58:50.375Z,8.52
2017-04-20T08:00:00.393Z,8.54
2017-04-20T08:01:10.724Z,8.58
2017-04-20T08:02:21.043Z,8.57
2017-04-20T08:03:31.051Z,8.61
2017-04-20T08:04:41.087Z,8.54
2017-04-20T08:05:51.411Z,8.61
2017-04-20T08:07:01.754Z,8.72
2017-04-20T08:08:12.060Z,8.72
2017-04-20T08:09:22.126Z,8.72
2017-04-20T08:10:32.457Z,8.8
2017-04-20T08:11:42.794Z,8.77
2017-04-20T08:12:53.130Z,8.69
2017-04-20T08:14:03.464Z,8.76
2017-04-20T08:15:13.799Z,8.71
2017-04-20T08:16:24.149Z,8.67
2017-04-20T08:17:34.451Z,8.74
2017-04-20T08:18:44.483Z,8.79
2017-04-20T08:19:54.831Z,8.9
2017-04-20T08:21:04.853Z,8.97
2017-04-20T08:22:14.900Z,9.08
2017-04-20T08:23:24.907Z,9.14
2017-04-20T08:24:35.278Z,9.11
2017-04-20T08:25:45.294Z,9.17
2017-04-20T08:26:55.625Z,9.08
2017-04-20T08:28:05.636Z,9.19
2017-04-20T08:29:15.966Z,9.19
2017-04-20T08:30:25.991Z,9.2
2017-04-20T08:31:36.000Z,9.29
2017-04-20T08:32:46.328Z,9.32
2017-04-20T08:33:56.648Z,9.32
2017-04-20T08:35:06.982Z,9.38
2017-04-20T08:36:17.333Z,9.5
2017-04-20T08:37:27.352Z,9.44
2017-04-20T08:38:37.692Z,9.56
2017-04-20T08:39:47.698Z,9.55
2017-04-20T08:40:58.040Z,9.56
2017-04-20T08:42:08.365Z,9.63
2017-04-20T08:43:18.690Z,9.63
2017-04-20T08:44:28.701Z,9.72
2017-04-20T08:45:38.713Z,9.85
2017-04-20T08:46:49.046Z,9.89
2017-04-20T08:47:59.376Z,9.81
2017-04-20T08:49:09.698Z,9.89
2017-04-20T08:50:20.041Z,9.84
2017-04-20T08:51:30.069Z,9.75
2017-04-20T08:52:40.417Z,9.72
2017-04-20T08:53:50.750Z,9.71
2017-04-20T08:55:01.085Z,9.84
2017-04-20T08:56:11.415Z,9.82
2017-04-20T08:57:21.766Z,9.85
2017-04-20T08:58:32.097Z,9.84
2017-04-20T08:59:42.324Z,9.98
2017-04-20T09:00:52.671Z,9.93
2017-04-20T09:02:03.040Z,10.14
2017-04-20T09:03:13.055Z,10.11
2017-04-20T09:04:23.076Z,10.18
2017-04-20T09:05:33.098Z,10.29
2017-04-20T09:06:43.449Z,10.26
2017-04-20T09:07:53.801Z,10.2
2017-04-20T09:09:04.147Z,10.38
2017-04-20T09:10:14.479Z,10.38
2017-04-20T09:11:24.511Z,10.31
2017-04-20T09:12:34.844Z,10.47
2017-04-20T09:13:44.872Z,10.39
2017-04-20T09:14:55.210Z,10.41
2017-04-20T09:16:05.529Z,10.46
2017-04-20T09:17:15.585Z,10.39
2017-04-20T09:18:25.600Z,10.58
2017-04-20T09:19:35.617Z,10.65
2017-04-20T09:20:45.948Z,10.73
2017-04-20T09:21:56.276Z,10.84
2017-04-20T09:23:06.594Z,10.88
2017-04-20T09:24:16.926Z,11.03
2017-04-20T09:25:26.963Z,11.03
2017-04-20T09:26:37.333Z,10.98
2017-04-20T09:27:47.665Z,10.97
2017-04-20T09:28:58.020Z,10.92
2017-04-20T09:30:08.366Z,10.88
2017-04-20T09:31:18.380Z,10.94
2017-04-20T09:32:28.705Z,10.98
2017-04-20T09:33:39.082Z,10.98
2017-04-20T09:34:49.403Z,10.94
2017-04-20T09:35:59.416Z,11.05
2017-04-20T09:37:09.440Z,11.05
2017-04-20T09:38:19.767Z,10.98
2017-04-20T09:39:30.273Z,10.88
2017-04-20T09:40:40.746Z,10.88
2017-04-20T09:41:51.289Z,10.77
2017-04-20T09:43:01.358Z,10.7
2017-04-20T09:44:11.073Z,10.63
2017-04-20T09:45:21.191Z,10.61
2017-04-20T09:46:31.534Z,10.66
2017-04-20T09:47:41.554Z,10.7
2017-04-20T09:48:51.590Z,10.59
2017-04-20T09:50:01.923Z,10.42
2017-04-20T09:51:11.969Z,10.32
2017-04-20T09:52:22.286Z,10.38
2017-04-20T09:53:32.324Z,10.55
2017-04-20T09:54:42.645Z,10.69
2017-04-20T09:55:52.986Z,10.79
2017-04-20T09:57:03.005Z,10.8
2017-04-20T09:58:13.050Z,10.79
2017-04-20T09:59:23.372Z,10.77
2017-04-20T10:00:33.706Z,10.79
2017-04-20T10:01:43.923Z,10.83
2017-04-20T10:02:53.656Z,10.97
2017-04-20T10:04:03.991Z,11.03
2017-04-20T10:05:14.379Z,11.27
2017-04-20T10:06:24.411Z,11.43
2017-04-20T10:07:34.734Z,11.45
2017-04-20T10:08:45.063Z,11.52
2017-04-20T10:09:55.076Z,11.6
2017-04-20T10:11:05.103Z,11.67
2017-04-20T10:12:14.810Z,11.63
2017-04-20T10:13:25.150Z,11.7
2017-04-20T10:14:35.494Z,11.63
2017-04-20T10:15:45.586Z,11.71
2017-04-20T10:16:55.937Z,11.76
2017-04-20T10:18:06.272Z,11.73
2017-04-20T10:19:16.613Z,11.81
2017-04-20T10:20:26.315Z,11.79
2017-04-20T10:21:36.449Z,11.73
2017-04-20T10:22:46.716Z,11.67
2017-04-20T10:23:57.137Z,11.7
2017-04-20T10:25:07.483Z,11.52
2017-04-20T10:26:17.841Z,11.35
2017-04-20T10:27:27.868Z,11.18
2017-04-20T10:28:37.920Z,11.15
2017-04-20T10:29:47.957Z,10.87
2017-04-20T10:30:58.287Z,10.95
2017-04-20T10:32:08.620Z,10.98
2017-04-20T10:33:18.942Z,10.83
2017-04-20T10:34:29.288Z,10.97
2017-04-20T10:35:39.632Z,10.95
2017-04-20T10:36:49.954Z,10.95
2017-04-20T10:37:59.973Z,10.88
2017-04-20T10:39:09.672Z,11.05
2017-04-20T10:40:20.019Z,11.05
2017-04-20T10:41:30.377Z,11.2
2017-04-20T10:42:40.375Z,11.2
2017-04-20T10:43:50.698Z,11.15
2017-04-20T10:45:00.718Z,11.27
2017-04-20T10:46:10.729Z,11.2
2017-04-20T10:47:20.754Z,11.23
2017-04-20T10:48:30.793Z,11.2
2017-04-20T10:49:41.115Z,11.21
2017-04-20T10:50:51.461Z,11.18
2017-04-20T10:52:01.813Z,11.26
2017-04-20T10:53:12.136Z,11.3
2017-04-20T10:54:22.462Z,11.41
2017-04-20T10:55:32.809Z,11.46
2017-04-20T10:56:43.131Z,11.59
2017-04-20T10:57:53.551Z,11.67
2017-04-20T10:59:03.879Z,11.68
2017-04-20T11:00:13.899Z,11.75
2017-04-20T11:01:23.760Z,11.79
2017-04-20T11:02:34.093Z,11.68
2017-04-20T11:03:44.443Z,11.73
2017-04-20T11:04:54.451Z,11.84
2017-04-20T11:06:04.485Z,11.91
2017-04-20T11:07:14.810Z,11.94
2017-04-20T11:08:24.819Z,12.11
2017-04-20T11:09:34.553Z,12.08
2017-04-20T11:10:44.585Z,12.16
2017-04-20T11:11:54.914Z,12.1
2017-04-20T11:13:04.938Z,12.16
2017-04-20T11:14:15.277Z,12.26
2017-04-20T11:15:25.597Z,12.22
2017-04-20T11:16:35.620Z,12.31
2017-04-20T11:17:45.646Z,12.38
2017-04-20T11:18:55.984Z,12.37
2017-04-20T11:20:06.001Z,12.34
2017-04-20T11:21:16.320Z,12.26
2017-04-20T11:22:26.649Z,12.19
2017-04-20T11:23:36.965Z,12.34
2017-04-20T11:24:46.999Z,12.48
2017-04-20T11:25:57.033Z,12.58
2017-04-20T11:27:07.357Z,12.7
2017-04-20T11:28:17.370Z,12.86
2017-04-20T11:29:27.708Z,13.06
2017-04-20T11:30:38.052Z,13.14
2017-04-20T11:31:48.371Z,13.32
2017-04-20T11:32:58.708Z,13.39
2017-04-20T11:34:08.721Z,13.51
2017-04-20T11:35:18.424Z,13.47
2017-04-20T11:36:28.329Z,13.45
2017-04-20T11:37:38.353Z,13.48
2017-04-20T11:38:48.378Z,13.36
2017-04-20T11:39:58.737Z,13.14
2017-04-20T11:41:09.093Z,12.89
2017-04-20T11:42:19.436Z,12.63
2017-04-20T11:43:29.824Z,12.56
2017-04-20T11:44:40.222Z,12.4
2017-04-20T11:45:49.937Z,12.28
2017-04-20T11:46:59.944Z,12.34
2017-04-20T11:48:10.280Z,12.31
2017-04-20T11:49:20.599Z,12.47
2017-04-20T11:50:30.924Z,12.56
2017-04-20T11:51:41.261Z,12.73
2017-04-20T11:52:51.602Z,12.91
2017-04-20T11:54:01.307Z,12.88
2017-04-20T11:55:11.657Z,12.89
2017-04-20T11:56:21.688Z,12.89
2017-04-20T11:57:31.746Z,12.86
2017-04-20T11:58:41.457Z,12.98
2017-04-20T11:59:51.797Z,13.02
2017-04-20T12:01:01.810Z,13.02
2017-04-20T12:02:12.160Z,12.99
2017-04-20T12:03:22.517Z,13.14
2017-04-20T12:04:32.536Z,13.21
2017-04-20T12:05:42.847Z,13.42
2017-04-20T12:06:53.177Z,13.55
2017-04-20T12:08:03.192Z,13.55
2017-04-20T12:09:13.214Z,13.7
2017-04-20T12:10:23.538Z,13.9
2017-04-20T12:11:33.547Z,13.97
2017-04-20T12:12:43.869Z,14.06
2017-04-20T12:13:53.897Z,14.05
2017-04-20T12:15:04.224Z,13.91
2017-04-20T12:16:14.709Z,13.65
2017-04-20T12:17:24.715Z,13.62
2017-04-20T12:18:34.771Z,13.45
2017-04-20T12:19:44.796Z,13.4
2017-04-20T12:20:55.111Z,13.21
2017-04-20T12:22:05.410Z,13.25
2017-04-20T12:23:15.751Z,13.35
2017-04-20T12:24:26.105Z,13.54
2017-04-20T12:25:36.442Z,13.63
2017-04-20T12:26:46.467Z,13.63
2017-04-20T12:27:56.497Z,13.58
2017-04-20T12:29:06.843Z,13.58
2017-04-20T12:30:16.855Z,13.6
2017-04-20T12:31:27.185Z,13.6
2017-04-20T12:32:37.535Z,13.73
2017-04-20T12:33:47.870Z,13.86
2017-04-20T12:34:57.879Z,13.87
2017-04-20T12:36:08.188Z,13.97
2017-04-20T12:37:18.223Z,13.97
2017-04-20T12:38:28.243Z,13.88
2017-04-20T12:39:38.249Z,13.66
2017-04-20T12:40:48.588Z,13.44
2017-04-20T12:41:58.594Z,13.14
2017-04-20T12:43:08.688Z,12.86
2017-04-20T12:44:19.026Z,12.62
2017-04-20T12:45:29.376Z,12.59
2017-04-20T12:46:39.728Z,12.43
2017-04-20T12:47:49.741Z,12.4
2017-04-20T12:49:00.105Z,12.41
2017-04-20T12:50:10.434Z,12.45
2017-04-20T12:51:20.769Z,12.61
2017-04-20T12:52:31.116Z,12.58
2017-04-20T12:53:41.131Z,12.62
2017-04-20T12:54:51.204Z,12.43
2017-04-20T12:56:01.527Z,12.22
2017-04-20T12:57:11.551Z,11.85
2017-04-20T12:58:21.593Z,11.73
2017-04-20T12:59:31.335Z,11.6
2017-04-20T13:00:41.488Z,11.59
2017-04-20T13:01:52.079Z,11.76
2017-04-20T13:03:02.504Z,12.11
2017-04-20T13:04:12.292Z,12.52
2017-04-20T13:05:22.464Z,12.88
2017-04-20T13:06:32.806Z,13.14
2017-04-20T13:07:43.138Z,13.39
2017-04-20T13:08:52.230Z,13.51
2017-04-20T13:10:02.552Z,13.62
2017-04-20T13:11:12.585Z,13.76
2017-04-20T13:12:22.921Z,13.88
2017-04-20T13:13:32.942Z,14.03
2017-04-20T13:14:43.283Z,14.23
2017-04-20T13:15:53.327Z,14.33
2017-04-20T13:17:03.662Z,14.53
2017-04-20T13:18:13.984Z,14.53
2017-04-20T13:19:23.691Z,14.61
2017-04-20T13:20:33.711Z,14.69
2017-04-20T13:21:44.049Z,14.64
2017-04-20T13:22:54.061Z,14.67
2017-04-20T13:24:04.103Z,14.46
2017-04-20T13:25:14.459Z,14.52
2017-04-20T13:26:24.470Z,14.63
2017-04-20T13:27:34.808Z,14.64
2017-04-20T13:28:45.149Z,14.63
2017-04-20T13:29:55.406Z,14.63
2017-04-20T13:31:05.114Z,14.71
2017-04-20T13:32:15.456Z,14.85
2017-04-20T13:33:25.805Z,14.71
2017-04-20T13:34:36.358Z,14.71
2017-04-20T13:35:46.731Z,14.64
2017-04-20T13:36:57.082Z,14.67
2017-04-20T13:38:07.413Z,14.67
2017-04-20T13:39:17.834Z,14.63
2017-04-20T13:40:27.844Z,14.61
2017-04-20T13:41:37.963Z,14.66
2017-04-20T13:42:48.488Z,14.59
2017-04-20T13:43:58.814Z,14.42
2017-04-20T13:45:09.174Z,14.2
2017-04-20T13:46:19.516Z,13.86
2017-04-20T13:47:29.847Z,13.53
2017-04-20T13:48:40.179Z,13.25
2017-04-20T13:49:50.509Z,13.09
2017-04-20T13:51:00.861Z,13.03
2017-04-20T13:52:10.874Z,12.95
2017-04-20T13:53:20.908Z,13.01
2017-04-20T13:54:31.253Z,13.06
2017-04-20T13:55:41.597Z,12.91
2017-04-20T13:56:51.950Z,12.73
2017-04-20T13:58:02.284Z,12.61
2017-04-20T13:59:12.624Z,12.63
2017-04-20T14:00:22.975Z,12.56
2017-04-20T14:01:33.011Z,12.71
2017-04-20T14:02:43.352Z,12.61
2017-04-20T14:03:53.691Z,12.56
2017-04-20T14:05:03.093Z,12.73
2017-04-20T14:06:13.109Z,12.78
2017-04-20T14:07:23.140Z,12.88
2017-04-20T14:08:33.153Z,13.01
2017-04-20T14:09:43.174Z,13.16
2017-04-20T14:10:53.521Z,13.21
2017-04-20T14:12:03.539Z,13.24
2017-04-20T14:13:13.560Z,13.16
2017-04-20T14:14:23.905Z,13.14
2017-04-20T14:15:34.230Z,13.03
2017-04-20T14:16:44.572Z,12.86
2017-04-20T14:17:55.134Z,12.61
2017-04-20T14:19:05.483Z,12.43
2017-04-20T14:20:15.854Z,12.34
2017-04-20T14:21:26.393Z,12.41
2017-04-20T14:22:36.724Z,12.63
2017-04-20T14:23:46.436Z,12.89
2017-04-20T14:24:56.959Z,13.35
2017-04-20T14:26:06.995Z,13.48
2017-04-20T14:27:17.324Z,13.65
2017-04-20T14:28:27.640Z,13.63
2017-04-20T14:29:37.683Z,13.47
2017-04-20T14:30:48.039Z,13.27
2017-04-20T14:31:58.384Z,13.11
2017-04-20T14:33:08.714Z,13.09
2017-04-20T14:34:19.051Z,12.89
2017-04-20T14:35:28.773Z,12.88
2017-04-20T14:36:39.116Z,12.55
2017-04-20T14:37:49.442Z,12.44
2017-04-20T14:38:59.778Z,12.26
2017-04-20T14:40:10.117Z,12.11
2017-04-20T14:41:20.470Z,11.89
2017-04-20T14:42:30.498Z,11.68
2017-04-20T14:43:40.854Z,11.6
2017-04-20T14:44:51.182Z,11.33
2017-04-20T14:46:01.526Z,11.15
2017-04-20T14:47:11.894Z,11.13
2017-04-20T14:48:22.235Z,10.95
2017-04-20T14:49:32.262Z,10.85
2017-04-20T14:50:42.592Z,10.73
2017-04-20T14:51:52.684Z,10.57
2017-04-20T14:53:03.015Z,10.36
2017-04-20T14:54:13.025Z,10.36
2017-04-20T14:55:23.386Z,10.31
2017-04-20T14:56:33.724Z,10.1
2017-04-20T14:57:44.070Z,10.1
2017-04-20T14:58:54.413Z,10.13
2017-04-20T15:00:04.463Z,10.1
2017-04-20T15:01:14.742Z,10.02
2017-04-20T15:02:24.781Z,10.07
2017-04-20T15:03:35.124Z,10.1
2017-04-20T15:04:45.455Z,10.23
2017-04-20T15:05:55.572Z,10.23
2017-04-20T15:07:05.904Z,10.33
2017-04-20T15:08:16.260Z,10.39
2017-04-20T15:09:26.608Z,10.59
2017-04-20T15:10:36.941Z,10.79
2017-04-20T15:11:47.291Z,10.85
2017-04-20T15:12:57.624Z,10.98
2017-04-20T15:14:08.001Z,11.18
2017-04-20T15:15:18.340Z,11.08
2017-04-20T15:16:28.070Z,11.24
2017-04-20T15:17:38.087Z,11.39
2017-04-20T15:18:48.438Z,11.34
2017-04-20T15:19:58.771Z,11.42
2017-04-20T15:21:08.814Z,11.59
2017-04-20T15:22:19.159Z,11.7
2017-04-20T15:23:29.502Z,11.79
2017-04-20T15:24:39.233Z,11.81
2017-04-20T15:25:49.573Z,11.85
2017-04-20T15:26:59.911Z,11.84
2017-04-20T15:28:10.284Z,11.79
2017-04-20T15:29:20.320Z,11.79
2017-04-20T15:30:30.674Z,11.68
2017-04-20T15:31:41.010Z,11.64
2017-04-20T15:32:51.077Z,11.57
2017-04-20T15:34:01.421Z,11.56
2017-04-20T15:35:11.448Z,11.46
2017-04-20T15:36:21.806Z,11.42
2017-04-20T15:37:32.145Z,11.34
2017-04-20T15:38:42.463Z,11.28
2017-04-20T15:39:52.803Z,11.2
2017-04-20T15:41:03.154Z,11.15
2017-04-20T15:42:12.876Z,11.05
2017-04-20T15:43:22.925Z,10.98
2017-04-20T15:44:33.000Z,10.87
2017-04-20T15:45:43.410Z,10.9
2017-04-20T15:46:53.835Z,10.73
2017-04-20T15:48:03.890Z,10.65
2017-04-20T15:49:14.369Z,10.66
2017-04-20T15:50:24.717Z,10.65
2017-04-20T15:51:34.748Z,10.59
2017-04-20T15:52:45.101Z,10.54
2017-04-20T15:53:55.438Z,10.59
2017-04-20T15:55:05.779Z,10.66